sensor_id;sensor_type;location;lat;lon;timestamp;P1;durP1;ratioP1;P2;durP2;ratioP2
54259;SDS011;40172;53.022;7.012;2022-12-18T00:01:18;46.30;;;15.50;;
54259;SDS011;40172;53.022;7.012;2022-12-18T00:03:45;73.93;;;21.67;;
54259;SDS011;40172;53.022;7.012;2022-12-18T00:06:11;48.28;;;18.58;;
54259;SDS011;40172;53.022;7.012;2022-12-18T00:08:37;72.90;;;20.20;;
54259;SDS011;40172;53.022;7.012;2022-12-18T00:11:07;39.17;;;13.85;;
54259;SDS011;40172;53.022;7.012;2022-12-18T00:13:35;45.40;;;15.13;;
54259;SDS011;40172;53.022;7.012;2022-12-18T00:16:06;59.15;;;19.75;;
54259;SDS011;40172;53.022;7.012;2022-12-18T00:18:33;46.28;;;14.65;;
54259;SDS011;40172;53.022;7.012;2022-12-18T00:20:59;41.00;;;11.38;;
54259;SDS011;40172;53.022;7.012;2022-12-18T00:23:27;57.00;;;18.02;;
54259;SDS011;40172;53.022;7.012;2022-12-18T00:25:53;48.72;;;17.50;;
54259;SDS011;40172;53.022;7.012;2022-12-18T00:28:18;45.53;;;13.48;;
54259;SDS011;40172;53.022;7.012;2022-12-18T00:30:44;39.97;;;14.82;;
54259;SDS011;40172;53.022;7.012;2022-12-18T00:33:09;47.92;;;16.50;;
54259;SDS011;40172;53.022;7.012;2022-12-18T00:35:35;54.03;;;17.42;;
54259;SDS011;40172;53.022;7.012;2022-12-18T00:38:01;58.58;;;18.60;;
54259;SDS011;40172;53.022;7.012;2022-12-18T00:40:26;68.10;;;18.92;;
54259;SDS011;40172;53.022;7.012;2022-12-18T00:42:52;70.78;;;17.95;;
54259;SDS011;40172;53.022;7.012;2022-12-18T00:45:20;56.00;;;19.50;;
54259;SDS011;40172;53.022;7.012;2022-12-18T00:47:47;57.13;;;19.08;;
54259;SDS011;40172;53.022;7.012;2022-12-18T00:50:12;56.40;;;17.92;;
54259;SDS011;40172;53.022;7.012;2022-12-18T00:52:38;51.85;;;16.58;;
54259;SDS011;40172;53.022;7.012;2022-12-18T00:55:04;40.50;;;15.52;;
54259;SDS011;40172;53.022;7.012;2022-12-18T00:57:29;52.20;;;15.05;;
54259;SDS011;40172;53.022;7.012;2022-12-18T00:59:55;44.38;;;15.27;;
54259;SDS011;40172;53.022;7.012;2022-12-18T01:02:20;62.63;;;18.50;;
54259;SDS011;40172;53.022;7.012;2022-12-18T01:04:46;48.55;;;14.95;;
54259;SDS011;40172;53.022;7.012;2022-12-18T01:07:12;49.70;;;17.17;;
54259;SDS011;40172;53.022;7.012;2022-12-18T01:09:37;49.15;;;13.07;;
54259;SDS011;40172;53.022;7.012;2022-12-18T01:12:03;66.30;;;18.42;;
54259;SDS011;40172;53.022;7.012;2022-12-18T01:14:29;56.40;;;17.27;;
54259;SDS011;40172;53.022;7.012;2022-12-18T01:16:54;61.45;;;18.60;;
54259;SDS011;40172;53.022;7.012;2022-12-18T01:19:20;59.78;;;20.77;;
54259;SDS011;40172;53.022;7.012;2022-12-18T01:21:45;57.05;;;20.30;;
54259;SDS011;40172;53.022;7.012;2022-12-18T01:24:11;53.50;;;17.75;;
54259;SDS011;40172;53.022;7.012;2022-12-18T01:26:37;56.20;;;18.05;;
54259;SDS011;40172;53.022;7.012;2022-12-18T01:29:02;51.65;;;17.73;;
54259;SDS011;40172;53.022;7.012;2022-12-18T01:31:29;69.20;;;20.45;;
54259;SDS011;40172;53.022;7.012;2022-12-18T01:33:57;75.60;;;23.73;;
54259;SDS011;40172;53.022;7.012;2022-12-18T01:36:26;63.13;;;22.65;;
54259;SDS011;40172;53.022;7.012;2022-12-18T01:38:54;68.68;;;21.17;;
54259;SDS011;40172;53.022;7.012;2022-12-18T01:41:21;56.75;;;21.23;;
54259;SDS011;40172;53.022;7.012;2022-12-18T01:43:55;51.08;;;17.35;;
54259;SDS011;40172;53.022;7.012;2022-12-18T01:46:22;59.10;;;14.57;;
54259;SDS011;40172;53.022;7.012;2022-12-18T01:48:51;54.45;;;17.35;;
54259;SDS011;40172;53.022;7.012;2022-12-18T01:51:21;57.83;;;16.45;;
54259;SDS011;40172;53.022;7.012;2022-12-18T01:53:47;38.00;;;12.70;;
54259;SDS011;40172;53.022;7.012;2022-12-18T01:56:13;25.08;;;11.73;;
54259;SDS011;40172;53.022;7.012;2022-12-18T02:01:20;37.50;;;14.27;;
54259;SDS011;40172;53.022;7.012;2022-12-18T02:03:49;30.63;;;14.02;;
54259;SDS011;40172;53.022;7.012;2022-12-18T02:06:15;46.22;;;15.60;;
54259;SDS011;40172;53.022;7.012;2022-12-18T02:08:58;58.45;;;19.27;;
54259;SDS011;40172;53.022;7.012;2022-12-18T02:17:32;65.25;;;18.20;;
54259;SDS011;40172;53.022;7.012;2022-12-18T02:22:53;74.18;;;17.35;;
54259;SDS011;40172;53.022;7.012;2022-12-18T02:28:20;26.02;;;11.43;;
54259;SDS011;40172;53.022;7.012;2022-12-18T02:30:49;56.90;;;19.05;;
54259;SDS011;40172;53.022;7.012;2022-12-18T02:33:18;34.58;;;13.48;;
54259;SDS011;40172;53.022;7.012;2022-12-18T02:35:45;59.78;;;17.80;;
54259;SDS011;40172;53.022;7.012;2022-12-18T02:38:12;51.33;;;19.00;;
54259;SDS011;40172;53.022;7.012;2022-12-18T02:40:39;50.85;;;16.13;;
54259;SDS011;40172;53.022;7.012;2022-12-18T02:43:07;47.78;;;15.50;;
54259;SDS011;40172;53.022;7.012;2022-12-18T02:45:57;31.38;;;12.35;;
54259;SDS011;40172;53.022;7.012;2022-12-18T02:48:25;40.90;;;16.42;;
54259;SDS011;40172;53.022;7.012;2022-12-18T02:53:45;48.22;;;14.38;;
54259;SDS011;40172;53.022;7.012;2022-12-18T02:56:33;50.50;;;16.15;;
54259;SDS011;40172;53.022;7.012;2022-12-18T03:01:55;45.90;;;13.98;;
54259;SDS011;40172;53.022;7.012;2022-12-18T03:04:30;36.05;;;12.70;;
54259;SDS011;40172;53.022;7.012;2022-12-18T03:07:20;41.42;;;12.60;;
54259;SDS011;40172;53.022;7.012;2022-12-18T03:09:52;29.08;;;12.75;;
54259;SDS011;40172;53.022;7.012;2022-12-18T03:12:24;31.73;;;12.23;;
54259;SDS011;40172;53.022;7.012;2022-12-18T03:17:38;37.42;;;12.88;;
54259;SDS011;40172;53.022;7.012;2022-12-18T03:20:10;33.30;;;11.75;;
54259;SDS011;40172;53.022;7.012;2022-12-18T03:22:39;22.88;;;9.13;;
54259;SDS011;40172;53.022;7.012;2022-12-18T03:25:07;25.15;;;9.65;;
54259;SDS011;40172;53.022;7.012;2022-12-18T03:27:39;27.15;;;12.27;;
54259;SDS011;40172;53.022;7.012;2022-12-18T03:30:09;38.67;;;12.75;;
54259;SDS011;40172;53.022;7.012;2022-12-18T03:32:47;34.08;;;11.57;;
54259;SDS011;40172;53.022;7.012;2022-12-18T03:35:18;36.55;;;13.48;;
54259;SDS011;40172;53.022;7.012;2022-12-18T03:37:51;17.15;;;8.82;;
54259;SDS011;40172;53.022;7.012;2022-12-18T03:40:17;24.08;;;9.57;;
54259;SDS011;40172;53.022;7.012;2022-12-18T03:42:47;24.40;;;8.93;;
54259;SDS011;40172;53.022;7.012;2022-12-18T03:45:36;38.30;;;12.73;;
54259;SDS011;40172;53.022;7.012;2022-12-18T03:51:00;51.88;;;14.20;;
54259;SDS011;40172;53.022;7.012;2022-12-18T03:56:18;28.55;;;11.23;;
54259;SDS011;40172;53.022;7.012;2022-12-18T03:58:48;55.45;;;13.43;;
54259;SDS011;40172;53.022;7.012;2022-12-18T04:01:15;32.67;;;12.20;;
54259;SDS011;40172;53.022;7.012;2022-12-18T04:03:42;26.17;;;10.50;;
54259;SDS011;40172;53.022;7.012;2022-12-18T04:06:09;26.25;;;11.52;;
54259;SDS011;40172;53.022;7.012;2022-12-18T04:08:36;32.58;;;12.48;;
54259;SDS011;40172;53.022;7.012;2022-12-18T04:11:02;44.88;;;13.05;;
54259;SDS011;40172;53.022;7.012;2022-12-18T04:13:28;21.88;;;9.57;;
54259;SDS011;40172;53.022;7.012;2022-12-18T04:15:57;40.25;;;12.70;;
54259;SDS011;40172;53.022;7.012;2022-12-18T04:18:23;27.05;;;10.80;;
54259;SDS011;40172;53.022;7.012;2022-12-18T04:20:49;24.40;;;11.20;;
54259;SDS011;40172;53.022;7.012;2022-12-18T04:23:14;24.67;;;6.75;;
54259;SDS011;40172;53.022;7.012;2022-12-18T04:25:40;20.48;;;10.52;;
54259;SDS011;40172;53.022;7.012;2022-12-18T04:28:05;26.90;;;10.65;;
54259;SDS011;40172;53.022;7.012;2022-12-18T04:30:31;15.88;;;7.60;;
54259;SDS011;40172;53.022;7.012;2022-12-18T04:32:56;26.70;;;11.13;;
54259;SDS011;40172;53.022;7.012;2022-12-18T04:35:22;11.23;;;5.82;;
54259;SDS011;40172;53.022;7.012;2022-12-18T04:37:48;16.35;;;6.35;;
54259;SDS011;40172;53.022;7.012;2022-12-18T04:40:14;16.25;;;7.30;;
54259;SDS011;40172;53.022;7.012;2022-12-18T04:42:39;31.88;;;7.40;;
54259;SDS011;40172;53.022;7.012;2022-12-18T04:45:05;22.27;;;11.70;;
54259;SDS011;40172;53.022;7.012;2022-12-18T04:47:32;12.68;;;7.45;;
54259;SDS011;40172;53.022;7.012;2022-12-18T04:49:57;21.50;;;8.55;;
54259;SDS011;40172;53.022;7.012;2022-12-18T04:52:23;23.13;;;9.65;;
54259;SDS011;40172;53.022;7.012;2022-12-18T04:54:49;21.92;;;9.27;;
54259;SDS011;40172;53.022;7.012;2022-12-18T04:57:14;11.63;;;7.65;;
54259;SDS011;40172;53.022;7.012;2022-12-18T04:59:40;21.27;;;9.82;;
54259;SDS011;40172;53.022;7.012;2022-12-18T05:02:05;31.05;;;12.95;;
54259;SDS011;40172;53.022;7.012;2022-12-18T05:04:31;24.75;;;8.00;;
54259;SDS011;40172;53.022;7.012;2022-12-18T05:06:57;18.85;;;8.95;;
54259;SDS011;40172;53.022;7.012;2022-12-18T05:09:23;12.93;;;6.80;;
54259;SDS011;40172;53.022;7.012;2022-12-18T05:11:48;21.70;;;8.25;;
54259;SDS011;40172;53.022;7.012;2022-12-18T05:14:14;24.13;;;10.15;;
54259;SDS011;40172;53.022;7.012;2022-12-18T05:16:39;17.90;;;7.05;;
54259;SDS011;40172;53.022;7.012;2022-12-18T05:19:05;20.60;;;8.57;;
54259;SDS011;40172;53.022;7.012;2022-12-18T05:21:32;22.25;;;10.20;;
54259;SDS011;40172;53.022;7.012;2022-12-18T05:23:57;23.58;;;9.90;;
54259;SDS011;40172;53.022;7.012;2022-12-18T05:26:23;31.45;;;11.82;;
54259;SDS011;40172;53.022;7.012;2022-12-18T05:28:48;25.55;;;10.35;;
54259;SDS011;40172;53.022;7.012;2022-12-18T05:31:14;25.27;;;9.23;;
54259;SDS011;40172;53.022;7.012;2022-12-18T05:33:40;20.38;;;8.73;;
54259;SDS011;40172;53.022;7.012;2022-12-18T05:36:06;23.92;;;10.07;;
54259;SDS011;40172;53.022;7.012;2022-12-18T05:38:34;17.80;;;9.02;;
54259;SDS011;40172;53.022;7.012;2022-12-18T05:41:01;16.02;;;8.45;;
54259;SDS011;40172;53.022;7.012;2022-12-18T05:43:27;37.58;;;10.80;;
54259;SDS011;40172;53.022;7.012;2022-12-18T05:45:53;31.27;;;10.60;;
54259;SDS011;40172;53.022;7.012;2022-12-18T05:48:20;29.70;;;12.15;;
54259;SDS011;40172;53.022;7.012;2022-12-18T05:50:47;28.13;;;12.13;;
54259;SDS011;40172;53.022;7.012;2022-12-18T05:53:15;22.80;;;9.95;;
54259;SDS011;40172;53.022;7.012;2022-12-18T05:55:42;22.90;;;11.35;;
54259;SDS011;40172;53.022;7.012;2022-12-18T05:58:09;25.77;;;11.07;;
54259;SDS011;40172;53.022;7.012;2022-12-18T06:00:37;16.02;;;7.93;;
54259;SDS011;40172;53.022;7.012;2022-12-18T06:03:05;24.17;;;9.65;;
54259;SDS011;40172;53.022;7.012;2022-12-18T06:05:35;33.47;;;12.15;;
54259;SDS011;40172;53.022;7.012;2022-12-18T06:08:02;26.27;;;9.93;;
54259;SDS011;40172;53.022;7.012;2022-12-18T06:10:28;23.88;;;9.25;;
54259;SDS011;40172;53.022;7.012;2022-12-18T06:12:53;20.90;;;9.15;;
54259;SDS011;40172;53.022;7.012;2022-12-18T06:15:19;28.00;;;7.28;;
54259;SDS011;40172;53.022;7.012;2022-12-18T06:17:44;12.35;;;6.15;;
54259;SDS011;40172;53.022;7.012;2022-12-18T06:20:10;10.45;;;5.65;;
54259;SDS011;40172;53.022;7.012;2022-12-18T06:22:35;13.95;;;7.93;;
54259;SDS011;40172;53.022;7.012;2022-12-18T06:25:01;16.85;;;7.82;;
54259;SDS011;40172;53.022;7.012;2022-12-18T06:27:27;21.15;;;8.05;;
54259;SDS011;40172;53.022;7.012;2022-12-18T06:29:52;15.88;;;7.03;;
54259;SDS011;40172;53.022;7.012;2022-12-18T06:32:18;25.13;;;10.68;;
54259;SDS011;40172;53.022;7.012;2022-12-18T06:34:43;13.63;;;6.07;;
54259;SDS011;40172;53.022;7.012;2022-12-18T06:37:09;17.48;;;9.13;;
54259;SDS011;40172;53.022;7.012;2022-12-18T06:39:34;17.70;;;7.93;;
54259;SDS011;40172;53.022;7.012;2022-12-18T06:42:00;26.88;;;7.97;;
54259;SDS011;40172;53.022;7.012;2022-12-18T06:44:26;28.30;;;9.60;;
54259;SDS011;40172;53.022;7.012;2022-12-18T06:46:51;19.00;;;8.73;;
54259;SDS011;40172;53.022;7.012;2022-12-18T06:49:17;18.05;;;8.05;;
54259;SDS011;40172;53.022;7.012;2022-12-18T06:51:42;11.38;;;6.93;;
54259;SDS011;40172;53.022;7.012;2022-12-18T06:54:08;18.52;;;7.88;;
54259;SDS011;40172;53.022;7.012;2022-12-18T06:56:34;12.63;;;7.15;;
54259;SDS011;40172;53.022;7.012;2022-12-18T06:58:59;11.93;;;5.60;;
54259;SDS011;40172;53.022;7.012;2022-12-18T07:01:25;26.35;;;8.48;;
54259;SDS011;40172;53.022;7.012;2022-12-18T07:03:52;8.90;;;5.15;;
54259;SDS011;40172;53.022;7.012;2022-12-18T07:06:20;14.88;;;5.72;;
54259;SDS011;40172;53.022;7.012;2022-12-18T07:08:48;11.85;;;6.60;;
54259;SDS011;40172;53.022;7.012;2022-12-18T07:11:14;10.68;;;6.40;;
54259;SDS011;40172;53.022;7.012;2022-12-18T07:13:40;18.25;;;6.55;;
54259;SDS011;40172;53.022;7.012;2022-12-18T07:18:36;17.50;;;9.23;;
54259;SDS011;40172;53.022;7.012;2022-12-18T07:21:02;15.35;;;7.88;;
54259;SDS011;40172;53.022;7.012;2022-12-18T07:23:32;28.55;;;9.90;;
54259;SDS011;40172;53.022;7.012;2022-12-18T07:26:00;18.45;;;8.07;;
54259;SDS011;40172;53.022;7.012;2022-12-18T07:28:29;22.55;;;7.22;;
54259;SDS011;40172;53.022;7.012;2022-12-18T07:30:56;21.60;;;7.07;;
54259;SDS011;40172;53.022;7.012;2022-12-18T07:33:21;23.20;;;8.73;;
54259;SDS011;40172;53.022;7.012;2022-12-18T07:35:47;16.40;;;7.90;;
54259;SDS011;40172;53.022;7.012;2022-12-18T07:38:12;17.27;;;7.60;;
54259;SDS011;40172;53.022;7.012;2022-12-18T07:40:38;15.35;;;8.60;;
54259;SDS011;40172;53.022;7.012;2022-12-18T07:43:03;10.43;;;6.47;;
54259;SDS011;40172;53.022;7.012;2022-12-18T07:45:29;15.63;;;8.75;;
54259;SDS011;40172;53.022;7.012;2022-12-18T07:47:55;29.73;;;8.95;;
54259;SDS011;40172;53.022;7.012;2022-12-18T07:50:20;18.73;;;8.98;;
54259;SDS011;40172;53.022;7.012;2022-12-18T07:52:46;13.45;;;7.15;;
54259;SDS011;40172;53.022;7.012;2022-12-18T07:55:11;14.40;;;5.90;;
54259;SDS011;40172;53.022;7.012;2022-12-18T07:57:37;20.98;;;8.63;;
54259;SDS011;40172;53.022;7.012;2022-12-18T08:00:03;20.48;;;9.45;;
54259;SDS011;40172;53.022;7.012;2022-12-18T08:02:30;14.32;;;7.18;;
54259;SDS011;40172;53.022;7.012;2022-12-18T08:04:56;18.65;;;8.23;;
54259;SDS011;40172;53.022;7.012;2022-12-18T08:07:23;19.17;;;9.57;;
54259;SDS011;40172;53.022;7.012;2022-12-18T08:09:48;13.43;;;6.93;;
54259;SDS011;40172;53.022;7.012;2022-12-18T08:12:14;18.25;;;6.82;;
54259;SDS011;40172;53.022;7.012;2022-12-18T08:14:39;14.88;;;7.18;;
54259;SDS011;40172;53.022;7.012;2022-12-18T08:17:05;14.35;;;8.18;;
54259;SDS011;40172;53.022;7.012;2022-12-18T08:19:30;10.60;;;5.57;;
54259;SDS011;40172;53.022;7.012;2022-12-18T08:21:56;6.20;;;4.57;;
54259;SDS011;40172;53.022;7.012;2022-12-18T08:24:21;5.35;;;2.88;;
54259;SDS011;40172;53.022;7.012;2022-12-18T08:26:47;10.13;;;5.38;;
54259;SDS011;40172;53.022;7.012;2022-12-18T08:29:13;20.15;;;7.07;;
54259;SDS011;40172;53.022;7.012;2022-12-18T08:31:38;7.47;;;4.80;;
54259;SDS011;40172;53.022;7.012;2022-12-18T08:34:04;14.77;;;6.82;;
54259;SDS011;40172;53.022;7.012;2022-12-18T08:36:29;11.75;;;6.13;;
54259;SDS011;40172;53.022;7.012;2022-12-18T08:38:55;8.98;;;4.95;;
54259;SDS011;40172;53.022;7.012;2022-12-18T08:41:21;10.60;;;5.30;;
54259;SDS011;40172;53.022;7.012;2022-12-18T08:43:47;11.75;;;5.05;;
54259;SDS011;40172;53.022;7.012;2022-12-18T08:46:36;11.77;;;6.68;;
54259;SDS011;40172;53.022;7.012;2022-12-18T08:49:03;12.80;;;6.90;;
54259;SDS011;40172;53.022;7.012;2022-12-18T08:51:30;9.88;;;6.03;;
54259;SDS011;40172;53.022;7.012;2022-12-18T08:53:56;7.20;;;4.45;;
54259;SDS011;40172;53.022;7.012;2022-12-18T08:56:21;11.30;;;5.68;;
54259;SDS011;40172;53.022;7.012;2022-12-18T08:58:47;14.98;;;5.03;;
54259;SDS011;40172;53.022;7.012;2022-12-18T09:01:15;8.30;;;4.45;;
54259;SDS011;40172;53.022;7.012;2022-12-18T09:03:41;11.13;;;5.90;;
54259;SDS011;40172;53.022;7.012;2022-12-18T09:06:06;10.57;;;3.28;;
54259;SDS011;40172;53.022;7.012;2022-12-18T09:08:35;15.13;;;6.03;;
54259;SDS011;40172;53.022;7.012;2022-12-18T09:11:04;8.95;;;5.60;;
54259;SDS011;40172;53.022;7.012;2022-12-18T09:13:29;9.90;;;4.68;;
54259;SDS011;40172;53.022;7.012;2022-12-18T09:15:55;13.80;;;6.13;;
54259;SDS011;40172;53.022;7.012;2022-12-18T09:18:22;8.60;;;5.25;;
54259;SDS011;40172;53.022;7.012;2022-12-18T09:20:49;17.63;;;7.28;;
54259;SDS011;40172;53.022;7.012;2022-12-18T09:23:16;13.80;;;5.38;;
54259;SDS011;40172;53.022;7.012;2022-12-18T09:25:42;5.95;;;3.70;;
54259;SDS011;40172;53.022;7.012;2022-12-18T09:28:12;10.95;;;5.40;;
54259;SDS011;40172;53.022;7.012;2022-12-18T09:30:40;5.43;;;3.08;;
54259;SDS011;40172;53.022;7.012;2022-12-18T09:33:07;6.68;;;3.95;;
54259;SDS011;40172;53.022;7.012;2022-12-18T09:35:35;9.68;;;4.88;;
54259;SDS011;40172;53.022;7.012;2022-12-18T09:38:01;10.95;;;5.40;;
54259;SDS011;40172;53.022;7.012;2022-12-18T09:40:28;7.57;;;5.07;;
54259;SDS011;40172;53.022;7.012;2022-12-18T09:43:00;11.55;;;5.10;;
54259;SDS011;40172;53.022;7.012;2022-12-18T09:45:30;3.88;;;2.42;;
54259;SDS011;40172;53.022;7.012;2022-12-18T09:48:00;7.68;;;4.38;;
54259;SDS011;40172;53.022;7.012;2022-12-18T09:50:27;6.47;;;3.78;;
54259;SDS011;40172;53.022;7.012;2022-12-18T09:53:04;7.55;;;4.15;;
54259;SDS011;40172;53.022;7.012;2022-12-18T09:55:36;5.90;;;3.55;;
54259;SDS011;40172;53.022;7.012;2022-12-18T09:58:06;5.13;;;3.50;;
54259;SDS011;40172;53.022;7.012;2022-12-18T10:00:52;6.47;;;3.88;;
54259;SDS011;40172;53.022;7.012;2022-12-18T10:03:18;6.53;;;4.25;;
54259;SDS011;40172;53.022;7.012;2022-12-18T10:05:48;6.70;;;2.80;;
54259;SDS011;40172;53.022;7.012;2022-12-18T10:08:34;5.88;;;3.80;;
54259;SDS011;40172;53.022;7.012;2022-12-18T10:16:56;12.15;;;6.70;;
54259;SDS011;40172;53.022;7.012;2022-12-18T10:22:02;10.18;;;3.85;;
54259;SDS011;40172;53.022;7.012;2022-12-18T10:24:41;6.55;;;3.28;;
54259;SDS011;40172;53.022;7.012;2022-12-18T10:27:17;4.78;;;3.08;;
54259;SDS011;40172;53.022;7.012;2022-12-18T10:29:46;4.90;;;2.63;;
54259;SDS011;40172;53.022;7.012;2022-12-18T10:32:16;3.50;;;2.25;;
54259;SDS011;40172;53.022;7.012;2022-12-18T10:34:48;6.15;;;3.10;;
54259;SDS011;40172;53.022;7.012;2022-12-18T10:37:16;4.70;;;2.33;;
54259;SDS011;40172;53.022;7.012;2022-12-18T10:39:45;6.15;;;3.80;;
54259;SDS011;40172;53.022;7.012;2022-12-18T10:42:18;6.88;;;3.05;;
54259;SDS011;40172;53.022;7.012;2022-12-18T10:44:44;4.18;;;2.50;;
54259;SDS011;40172;53.022;7.012;2022-12-18T10:47:12;4.53;;;2.15;;
54259;SDS011;40172;53.022;7.012;2022-12-18T10:49:50;3.80;;;2.22;;
54259;SDS011;40172;53.022;7.012;2022-12-18T10:52:21;4.43;;;2.90;;
54259;SDS011;40172;53.022;7.012;2022-12-18T10:54:51;5.50;;;3.65;;
54259;SDS011;40172;53.022;7.012;2022-12-18T10:59:55;6.50;;;3.70;;
54259;SDS011;40172;53.022;7.012;2022-12-18T11:02:36;6.45;;;3.38;;
54259;SDS011;40172;53.022;7.012;2022-12-18T11:05:07;12.60;;;3.70;;
54259;SDS011;40172;53.022;7.012;2022-12-18T11:07:52;12.35;;;4.05;;
54259;SDS011;40172;53.022;7.012;2022-12-18T11:10:22;5.70;;;3.17;;
54259;SDS011;40172;53.022;7.012;2022-12-18T11:12:54;8.90;;;4.15;;
54259;SDS011;40172;53.022;7.012;2022-12-18T11:15:26;6.93;;;4.10;;
54259;SDS011;40172;53.022;7.012;2022-12-18T11:17:54;7.90;;;4.22;;
54259;SDS011;40172;53.022;7.012;2022-12-18T11:20:22;7.68;;;3.22;;
54259;SDS011;40172;53.022;7.012;2022-12-18T11:23:00;9.77;;;4.00;;
54259;SDS011;40172;53.022;7.012;2022-12-18T11:25:28;10.40;;;3.97;;
54259;SDS011;40172;53.022;7.012;2022-12-18T11:27:55;6.30;;;3.75;;
54259;SDS011;40172;53.022;7.012;2022-12-18T11:30:41;7.00;;;3.28;;
54259;SDS011;40172;53.022;7.012;2022-12-18T11:33:11;10.65;;;3.67;;
54259;SDS011;40172;53.022;7.012;2022-12-18T11:35:46;7.43;;;3.42;;
54259;SDS011;40172;53.022;7.012;2022-12-18T11:38:24;8.68;;;3.50;;
54259;SDS011;40172;53.022;7.012;2022-12-18T11:40:56;8.52;;;4.53;;
54259;SDS011;40172;53.022;7.012;2022-12-18T11:43:44;4.80;;;3.03;;
54259;SDS011;40172;53.022;7.012;2022-12-18T11:46:32;10.98;;;3.78;;
54259;SDS011;40172;53.022;7.012;2022-12-18T11:49:03;11.60;;;4.28;;
54259;SDS011;40172;53.022;7.012;2022-12-18T11:51:41;8.73;;;4.10;;
54259;SDS011;40172;53.022;7.012;2022-12-18T11:54:13;9.88;;;3.85;;
54259;SDS011;40172;53.022;7.012;2022-12-18T11:56:48;8.50;;;3.95;;
54259;SDS011;40172;53.022;7.012;2022-12-18T11:59:31;6.13;;;3.92;;
54259;SDS011;40172;53.022;7.012;2022-12-18T12:02:23;6.47;;;3.42;;
54259;SDS011;40172;53.022;7.012;2022-12-18T12:05:16;7.18;;;3.53;;
54259;SDS011;40172;53.022;7.012;2022-12-18T12:10:35;7.13;;;2.75;;
54259;SDS011;40172;53.022;7.012;2022-12-18T12:13:15;8.00;;;3.40;;
54259;SDS011;40172;53.022;7.012;2022-12-18T12:16:03;8.45;;;4.20;;
54259;SDS011;40172;53.022;7.012;2022-12-18T12:24:11;3.85;;;2.42;;
54259;SDS011;40172;53.022;7.012;2022-12-18T12:27:07;8.35;;;3.80;;
54259;SDS011;40172;53.022;7.012;2022-12-18T12:38:09;11.15;;;3.83;;
54259;SDS011;40172;53.022;7.012;2022-12-18T12:40:38;8.07;;;4.45;;
54259;SDS011;40172;53.022;7.012;2022-12-18T12:43:12;8.35;;;3.80;;
54259;SDS011;40172;53.022;7.012;2022-12-18T12:45:50;9.65;;;4.15;;
54259;SDS011;40172;53.022;7.012;2022-12-18T12:51:19;10.32;;;4.32;;
54259;SDS011;40172;53.022;7.012;2022-12-18T12:53:52;7.53;;;3.17;;
54259;SDS011;40172;53.022;7.012;2022-12-18T12:56:20;8.43;;;4.28;;
54259;SDS011;40172;53.022;7.012;2022-12-18T13:06:59;8.07;;;4.43;;
54259;SDS011;40172;53.022;7.012;2022-12-18T13:09:31;4.90;;;2.97;;
54259;SDS011;40172;53.022;7.012;2022-12-18T13:12:04;7.25;;;3.58;;
54259;SDS011;40172;53.022;7.012;2022-12-18T13:14:55;9.48;;;4.03;;
54259;SDS011;40172;53.022;7.012;2022-12-18T13:17:44;7.47;;;3.75;;
54259;SDS011;40172;53.022;7.012;2022-12-18T13:20:12;10.15;;;4.82;;
54259;SDS011;40172;53.022;7.012;2022-12-18T13:28:08;11.27;;;5.30;;
54259;SDS011;40172;53.022;7.012;2022-12-18T13:38:42;6.90;;;3.70;;
54259;SDS011;40172;53.022;7.012;2022-12-18T13:43:44;12.40;;;4.63;;
54259;SDS011;40172;53.022;7.012;2022-12-18T13:51:39;12.15;;;5.75;;
54259;SDS011;40172;53.022;7.012;2022-12-18T13:56:57;7.45;;;4.25;;
54259;SDS011;40172;53.022;7.012;2022-12-18T13:59:26;8.00;;;4.15;;
54259;SDS011;40172;53.022;7.012;2022-12-18T14:02:00;14.20;;;5.60;;
54259;SDS011;40172;53.022;7.012;2022-12-18T14:04:33;10.07;;;4.38;;
54259;SDS011;40172;53.022;7.012;2022-12-18T14:07:12;10.40;;;4.70;;
54259;SDS011;40172;53.022;7.012;2022-12-18T14:09:44;10.98;;;4.25;;
54259;SDS011;40172;53.022;7.012;2022-12-18T14:12:17;8.88;;;3.90;;
54259;SDS011;40172;53.022;7.012;2022-12-18T14:15:50;9.57;;;3.53;;
54259;SDS011;40172;53.022;7.012;2022-12-18T14:18:19;10.30;;;4.40;;
54259;SDS011;40172;53.022;7.012;2022-12-18T14:21:20;9.90;;;4.45;;
54259;SDS011;40172;53.022;7.012;2022-12-18T14:23:48;7.43;;;3.83;;
54259;SDS011;40172;53.022;7.012;2022-12-18T14:26:27;8.38;;;3.85;;
54259;SDS011;40172;53.022;7.012;2022-12-18T14:28:55;9.45;;;4.13;;
54259;SDS011;40172;53.022;7.012;2022-12-18T14:31:22;6.15;;;3.20;;
54259;SDS011;40172;53.022;7.012;2022-12-18T14:33:50;10.63;;;4.43;;
54259;SDS011;40172;53.022;7.012;2022-12-18T14:36:17;9.02;;;4.00;;
54259;SDS011;40172;53.022;7.012;2022-12-18T14:38:50;11.30;;;3.53;;
54259;SDS011;40172;53.022;7.012;2022-12-18T14:41:17;4.15;;;2.40;;
54259;SDS011;40172;53.022;7.012;2022-12-18T14:43:45;7.93;;;4.57;;
54259;SDS011;40172;53.022;7.012;2022-12-18T14:49:21;16.70;;;5.38;;
54259;SDS011;40172;53.022;7.012;2022-12-18T14:51:58;8.57;;;4.47;;
54259;SDS011;40172;53.022;7.012;2022-12-18T14:54:27;11.15;;;4.65;;
54259;SDS011;40172;53.022;7.012;2022-12-18T14:59:38;12.65;;;5.75;;
54259;SDS011;40172;53.022;7.012;2022-12-18T15:04:46;23.92;;;5.25;;
54259;SDS011;40172;53.022;7.012;2022-12-18T15:09:43;16.45;;;5.53;;
54259;SDS011;40172;53.022;7.012;2022-12-18T15:15:01;9.07;;;4.72;;
54259;SDS011;40172;53.022;7.012;2022-12-18T15:17:27;12.15;;;5.35;;
54259;SDS011;40172;53.022;7.012;2022-12-18T15:20:03;10.40;;;5.28;;
54259;SDS011;40172;53.022;7.012;2022-12-18T15:22:35;8.93;;;4.20;;
54259;SDS011;40172;53.022;7.012;2022-12-18T15:25:02;11.13;;;5.57;;
54259;SDS011;40172;53.022;7.012;2022-12-18T15:27:46;9.82;;;5.50;;
54259;SDS011;40172;53.022;7.012;2022-12-18T15:32:46;10.05;;;5.40;;
54259;SDS011;40172;53.022;7.012;2022-12-18T15:35:17;9.52;;;4.45;;
54259;SDS011;40172;53.022;7.012;2022-12-18T15:37:44;13.68;;;5.47;;
54259;SDS011;40172;53.022;7.012;2022-12-18T15:40:14;10.07;;;5.03;;
54259;SDS011;40172;53.022;7.012;2022-12-18T15:42:47;9.18;;;5.10;;
54259;SDS011;40172;53.022;7.012;2022-12-18T15:45:32;11.40;;;5.00;;
54259;SDS011;40172;53.022;7.012;2022-12-18T15:47:58;17.48;;;4.82;;
54259;SDS011;40172;53.022;7.012;2022-12-18T15:50:24;13.48;;;5.60;;
54259;SDS011;40172;53.022;7.012;2022-12-18T15:52:51;12.60;;;5.50;;
54259;SDS011;40172;53.022;7.012;2022-12-18T15:55:22;11.38;;;4.88;;
54259;SDS011;40172;53.022;7.012;2022-12-18T15:58:08;11.32;;;5.68;;
54259;SDS011;40172;53.022;7.012;2022-12-18T16:00:35;10.02;;;5.20;;
54259;SDS011;40172;53.022;7.012;2022-12-18T16:03:03;9.30;;;5.28;;
54259;SDS011;40172;53.022;7.012;2022-12-18T16:05:30;10.35;;;5.38;;
54259;SDS011;40172;53.022;7.012;2022-12-18T16:07:55;11.02;;;5.65;;
54259;SDS011;40172;53.022;7.012;2022-12-18T16:10:21;12.82;;;5.30;;
54259;SDS011;40172;53.022;7.012;2022-12-18T16:12:48;12.55;;;6.03;;
54259;SDS011;40172;53.022;7.012;2022-12-18T16:15:14;9.65;;;4.22;;
54259;SDS011;40172;53.022;7.012;2022-12-18T16:17:41;14.27;;;5.13;;
54259;SDS011;40172;53.022;7.012;2022-12-18T16:20:18;11.25;;;4.13;;
54259;SDS011;40172;53.022;7.012;2022-12-18T16:22:48;12.68;;;5.30;;
54259;SDS011;40172;53.022;7.012;2022-12-18T16:25:21;13.50;;;5.13;;
54259;SDS011;40172;53.022;7.012;2022-12-18T16:27:49;13.48;;;6.10;;
54259;SDS011;40172;53.022;7.012;2022-12-18T16:30:20;9.35;;;4.88;;
54259;SDS011;40172;53.022;7.012;2022-12-18T16:32:47;10.38;;;5.03;;
54259;SDS011;40172;53.022;7.012;2022-12-18T16:35:14;13.68;;;4.55;;
54259;SDS011;40172;53.022;7.012;2022-12-18T16:37:41;12.10;;;4.03;;